Time;durP1;ratioP1;P1;durP2;ratioP2;P2;SDS_P1;SDS_P2;PMS_P1;PMS_P2;Temp;Humidity;BMP_temperature;BMP_pressure;BME280_temperature;BME280_humidity;BME280_pressure;Samples;Min_cycle;Max_cycle;Signal;HPM_P1;HPM_P2
2021/04/29 00:00:55;;;;;;;19.27;13.83;;;;;;;;;;5081589;28;20209;-86
2021/04/29 00:03:21;;;;;;;16.77;14.53;;;;;;;;;;5075652;28;20189;-86
2021/04/29 00:05:46;;;;;;;18.53;14.73;;;;;;;;;;5074391;28;20260;-86
2021/04/29 00:08:11;;;;;;;18.63;14.70;;;;;;;;;;5075039;28;20251;-86
2021/04/29 00:10:37;;;;;;;18.00;14.73;;;;;;;;;;5075097;28;20179;-86
2021/04/29 00:13:02;;;;;;;19.97;15.00;;;;;;;;;;5075128;28;20172;-86
2021/04/29 00:15:28;;;;;;;20.80;15.40;;;;;;;;;;5075033;28;20175;-86
2021/04/29 00:17:53;;;;;;;17.30;14.23;;;;;;;;;;5075160;28;20220;-88
2021/04/29 00:20:20;;;;;;;21.67;15.83;;;;;;;;;;5075360;28;20500;-87
2021/04/29 00:22:46;;;;;;;20.30;15.67;;;;;;;;;;5075407;28;20172;-87
2021/04/29 00:25:11;;;;;;;20.77;16.23;;;;;;;;;;5075074;28;20179;-87
2021/04/29 00:27:37;;;;;;;20.20;15.33;;;;;;;;;;5075563;28;20515;-87
2021/04/29 00:30:04;;;;;;;21.47;16.33;;;;;;;;;;5074855;28;20198;-86
2021/04/29 00:32:29;;;;;;;22.43;16.77;;;;;;;;;;5073823;28;20175;-87
2021/04/29 00:34:54;;;;;;;22.63;16.53;;;;;;;;;;5075049;28;20174;-88
2021/04/29 00:37:19;;;;;;;23.60;17.60;;;;;;;;;;5075215;28;20173;-86
2021/04/29 00:39:45;;;;;;;22.60;17.17;;;;;;;;;;5075056;28;20170;-87
2021/04/29 00:42:10;;;;;;;23.10;16.93;;;;;;;;;;5074967;28;20192;-87
2021/04/29 00:44:36;;;;;;;25.97;17.43;;;;;;;;;;5074933;28;20167;-85
2021/04/29 00:47:01;;;;;;;24.00;17.73;;;;;;;;;;5074877;28;20174;-86
2021/04/29 00:49:26;;;;;;;21.00;16.70;;;;;;;;;;5074564;28;20242;-86
2021/04/29 00:51:52;;;;;;;22.77;17.23;;;;;;;;;;5074700;28;20269;-86
2021/04/29 00:54:17;;;;;;;27.13;17.33;;;;;;;;;;5074790;28;20177;-86
2021/04/29 00:56:42;;;;;;;22.00;16.77;;;;;;;;;;5074557;28;20175;-86
2021/04/29 00:59:08;;;;;;;23.53;16.67;;;;;;;;;;5074391;28;20621;-86
2021/04/29 01:01:34;;;;;;;18.60;16.37;;;;;;;;;;5073243;28;20175;-87
2021/04/29 01:04:07;;;;;;;21.63;16.40;;;;;;;;;;5074540;28;20167;-87
2021/04/29 01:06:42;;;;;;;23.27;16.53;;;;;;;;;;5074605;28;20167;-86
2021/04/29 01:09:16;;;;;;;20.50;16.13;;;;;;;;;;5074333;28;20220;-86
2021/04/29 01:11:43;;;;;;;20.20;15.97;;;;;;;;;;5073848;28;20171;-86
2021/04/29 01:14:10;;;;;;;23.20;16.70;;;;;;;;;;5073853;28;20253;-85
2021/04/29 01:16:36;;;;;;;22.70;16.47;;;;;;;;;;5074104;28;20253;-85
2021/04/29 01:19:03;;;;;;;24.03;17.00;;;;;;;;;;5074115;28;20297;-85
2021/04/29 01:21:29;;;;;;;21.97;16.77;;;;;;;;;;5073919;28;20172;-87
2021/04/29 01:24:00;;;;;;;23.57;16.50;;;;;;;;;;5074446;28;20175;-86
2021/04/29 01:26:31;;;;;;;22.07;16.83;;;;;;;;;;5073865;28;20167;-86
2021/04/29 01:28:59;;;;;;;21.97;15.53;;;;;;;;;;5074073;28;20671;-86
2021/04/29 01:31:27;;;;;;;24.07;16.13;;;;;;;;;;5073857;28;20171;-85
2021/04/29 01:33:53;;;;;;;22.00;16.63;;;;;;;;;;5073610;28;20167;-85
2021/04/29 01:36:19;;;;;;;20.53;16.97;;;;;;;;;;5073704;28;20182;-85
2021/04/29 01:38:45;;;;;;;21.50;16.57;;;;;;;;;;5073707;28;20183;-85
2021/04/29 01:41:10;;;;;;;19.67;15.17;;;;;;;;;;5073904;28;20177;-85
2021/04/29 01:43:36;;;;;;;24.60;17.00;;;;;;;;;;5073590;28;20181;-86
2021/04/29 01:46:04;;;;;;;21.73;17.00;;;;;;;;;;5073346;28;20171;-86
2021/04/29 01:48:29;;;;;;;27.27;17.73;;;;;;;;;;5073354;28;20234;-86
2021/04/29 01:50:56;;;;;;;20.03;15.93;;;;;;;;;;5073651;28;20166;-86
2021/04/29 01:53:22;;;;;;;20.97;16.70;;;;;;;;;;5073139;28;20167;-86
2021/04/29 01:55:47;;;;;;;22.13;15.90;;;;;;;;;;5073267;28;20228;-86
2021/04/29 01:58:13;;;;;;;22.27;17.70;;;;;;;;;;5071946;28;20262;-86
2021/04/29 02:00:38;;;;;;;21.60;17.60;;;;;;;;;;5073297;28;20261;-86
2021/04/29 02:03:03;;;;;;;22.03;16.63;;;;;;;;;;5073413;28;20210;-86
2021/04/29 02:05:29;;;;;;;21.90;16.83;;;;;;;;;;5073982;28;20191;-86
2021/04/29 02:07:54;;;;;;;20.97;17.00;;;;;;;;;;5073289;28;20191;-86
2021/04/29 02:10:20;;;;;;;21.40;17.07;;;;;;;;;;5073113;28;20191;-85
2021/04/29 02:12:49;;;;;;;23.40;17.40;;;;;;;;;;5072809;28;20182;-85
2021/04/29 02:15:15;;;;;;;23.53;18.30;;;;;;;;;;5072777;28;20621;-85
2021/04/29 02:17:41;;;;;;;22.63;16.93;;;;;;;;;;5073005;28;20170;-85
2021/04/29 02:20:06;;;;;;;20.17;16.10;;;;;;;;;;5073333;28;20528;-86
2021/04/29 02:22:37;;;;;;;21.57;17.23;;;;;;;;;;5073379;28;20213;-85
2021/04/29 02:25:03;;;;;;;23.57;17.03;;;;;;;;;;5073332;28;20163;-85
2021/04/29 02:27:28;;;;;;;20.40;15.93;;;;;;;;;;5073001;28;20250;-86
2021/04/29 02:29:54;;;;;;;20.23;16.80;;;;;;;;;;5072793;28;20333;-86
2021/04/29 02:32:19;;;;;;;21.50;15.90;;;;;;;;;;5072792;28;20176;-86
2021/04/29 02:34:45;;;;;;;21.57;15.97;;;;;;;;;;5073059;28;20262;-86
2021/04/29 02:37:11;;;;;;;21.27;16.20;;;;;;;;;;5072756;28;20170;-86
2021/04/29 02:39:37;;;;;;;20.73;15.90;;;;;;;;;;5072969;28;20175;-86
2021/04/29 02:42:02;;;;;;;23.60;16.33;;;;;;;;;;5073525;28;20170;-86
2021/04/29 02:44:28;;;;;;;21.43;16.17;;;;;;;;;;5072918;28;20258;-85
2021/04/29 02:46:54;;;;;;;20.67;15.67;;;;;;;;;;5072847;28;20214;-85
2021/04/29 02:49:19;;;;;;;21.77;15.63;;;;;;;;;;5072674;28;20313;-85
2021/04/29 02:51:45;;;;;;;22.20;16.07;;;;;;;;;;5072704;28;20510;-85
2021/04/29 02:54:11;;;;;;;21.07;16.03;;;;;;;;;;5072742;28;20177;-86
2021/04/29 02:56:40;;;;;;;19.80;16.67;;;;;;;;;;5072514;28;20690;-86
2021/04/29 02:59:06;;;;;;;19.57;15.87;;;;;;;;;;5072864;28;20185;-88
2021/04/29 03:01:32;;;;;;;22.87;16.50;;;;;;;;;;5072724;28;20254;-86
2021/04/29 03:03:58;;;;;;;22.10;16.07;;;;;;;;;;5072829;28;20194;-86
2021/04/29 03:06:23;;;;;;;22.33;15.63;;;;;;;;;;5072438;28;20633;-86
2021/04/29 03:08:50;;;;;;;22.80;16.30;;;;;;;;;;5072564;28;20198;-86
2021/04/29 03:11:16;;;;;;;20.33;16.77;;;;;;;;;;5072430;28;20571;-86
2021/04/29 03:13:41;;;;;;;21.47;15.63;;;;;;;;;;5072939;28;20258;-86
2021/04/29 03:16:06;;;;;;;24.37;16.40;;;;;;;;;;5072639;28;20653;-86
2021/04/29 03:18:31;;;;;;;19.83;16.30;;;;;;;;;;5072397;28;20529;-86
2021/04/29 03:20:57;;;;;;;21.13;16.50;;;;;;;;;;5071374;28;20190;-86
2021/04/29 03:23:22;;;;;;;18.60;16.17;;;;;;;;;;5072300;28;20179;-86
2021/04/29 03:25:47;;;;;;;22.90;15.53;;;;;;;;;;5072589;28;20508;-86
2021/04/29 03:28:13;;;;;;;20.63;15.67;;;;;;;;;;5072414;28;20167;-85
2021/04/29 03:30:38;;;;;;;23.30;16.20;;;;;;;;;;5072462;28;20222;-87
2021/04/29 03:33:05;;;;;;;22.03;16.60;;;;;;;;;;5072632;28;20167;-85
2021/04/29 03:35:30;;;;;;;19.00;14.80;;;;;;;;;;5073139;28;20283;-85
2021/04/29 03:37:56;;;;;;;22.33;15.23;;;;;;;;;;5075760;28;20258;-85
2021/04/29 03:40:22;;;;;;;21.90;15.67;;;;;;;;;;5075822;28;20171;-85
2021/04/29 03:42:47;;;;;;;21.70;14.37;;;;;;;;;;5075945;28;20649;-85
2021/04/29 03:45:12;;;;;;;25.57;15.33;;;;;;;;;;5075690;28;20254;-86
2021/04/29 03:47:38;;;;;;;19.50;15.20;;;;;;;;;;5076195;28;20262;-85
2021/04/29 03:50:04;;;;;;;20.53;16.10;;;;;;;;;;5075854;28;20300;-85
2021/04/29 03:52:29;;;;;;;20.03;15.13;;;;;;;;;;5076109;28;20225;-85
2021/04/29 03:54:55;;;;;;;17.47;13.57;;;;;;;;;;5075528;28;20167;-85
2021/04/29 03:57:20;;;;;;;20.03;14.73;;;;;;;;;;5076218;28;20173;-85
2021/04/29 03:59:45;;;;;;;20.40;14.97;;;;;;;;;;5075348;28;20235;-85
2021/04/29 04:02:11;;;;;;;18.43;14.53;;;;;;;;;;5075518;28;20201;-89
2021/04/29 04:04:37;;;;;;;17.70;14.93;;;;;;;;;;5076258;28;20263;-86
2021/04/29 04:07:02;;;;;;;20.20;14.53;;;;;;;;;;5075560;28;20190;-86
2021/04/29 04:09:27;;;;;;;18.47;13.63;;;;;;;;;;5075317;28;20214;-85
2021/04/29 04:11:53;;;;;;;19.43;14.73;;;;;;;;;;5075259;28;20174;-86
2021/04/29 04:14:18;;;;;;;19.13;14.83;;;;;;;;;;5075426;28;20167;-86
2021/04/29 04:16:43;;;;;;;20.37;15.13;;;;;;;;;;5075170;28;20171;-87
2021/04/29 04:19:09;;;;;;;18.80;15.53;;;;;;;;;;5075599;28;20258;-86
2021/04/29 04:21:34;;;;;;;16.57;14.57;;;;;;;;;;5074991;28;20175;-86
2021/04/29 04:23:59;;;;;;;20.67;15.20;;;;;;;;;;5074990;28;20560;-86
2021/04/29 04:26:25;;;;;;;18.33;16.17;;;;;;;;;;5074867;28;20217;-86
2021/04/29 04:28:50;;;;;;;19.63;15.07;;;;;;;;;;5074726;28;20205;-87
2021/04/29 04:31:15;;;;;;;16.93;15.20;;;;;;;;;;5075147;28;20171;-87
2021/04/29 04:33:41;;;;;;;19.47;16.87;;;;;;;;;;5075028;28;20220;-87
2021/04/29 04:36:07;;;;;;;21.70;17.13;;;;;;;;;;5074927;28;20179;-86
2021/04/29 04:38:32;;;;;;;22.63;18.40;;;;;;;;;;5074781;28;20171;-87
2021/04/29 04:40:57;;;;;;;19.90;16.77;;;;;;;;;;5074872;28;20213;-86
2021/04/29 04:43:23;;;;;;;27.03;18.87;;;;;;;;;;5074717;28;20218;-87
2021/04/29 04:45:49;;;;;;;22.27;17.00;;;;;;;;;;5074790;28;20178;-87
2021/04/29 04:48:14;;;;;;;22.13;17.33;;;;;;;;;;5074475;28;20633;-86
2021/04/29 04:50:39;;;;;;;23.23;18.30;;;;;;;;;;5074786;28;20532;-86
2021/04/29 04:53:05;;;;;;;23.03;18.73;;;;;;;;;;5074432;28;20177;-86
2021/04/29 04:55:30;;;;;;;23.57;19.10;;;;;;;;;;5074335;28;20190;-87
2021/04/29 04:57:56;;;;;;;19.27;16.73;;;;;;;;;;5074587;28;20174;-86
2021/04/29 05:00:22;;;;;;;19.37;17.33;;;;;;;;;;5074135;28;20173;-87
2021/04/29 05:02:47;;;;;;;28.47;19.23;;;;;;;;;;5074511;28;20482;-86
2021/04/29 05:05:13;;;;;;;24.67;17.73;;;;;;;;;;5074726;28;20612;-86
2021/04/29 05:07:38;;;;;;;22.83;18.07;;;;;;;;;;5074100;28;20258;-86
2021/04/29 05:10:04;;;;;;;25.33;20.40;;;;;;;;;;5073978;28;20199;-86
2021/04/29 05:12:29;;;;;;;20.33;17.10;;;;;;;;;;5073947;28;20190;-86
2021/04/29 05:14:54;;;;;;;19.53;17.40;;;;;;;;;;5074298;28;20167;-86
2021/04/29 05:17:20;;;;;;;17.60;15.70;;;;;;;;;;5074091;28;20167;-86
2021/04/29 05:19:45;;;;;;;22.17;17.80;;;;;;;;;;5074287;28;20257;-87
2021/04/29 05:22:14;;;;;;;21.97;16.47;;;;;;;;;;5074136;28;20220;-86
2021/04/29 05:24:40;;;;;;;17.07;15.33;;;;;;;;;;5074098;28;20163;-86
2021/04/29 05:27:05;;;;;;;20.43;15.87;;;;;;;;;;5074072;28;20182;-87
2021/04/29 05:29:30;;;;;;;19.50;17.43;;;;;;;;;;5073651;28;20206;-86
2021/04/29 05:31:56;;;;;;;19.13;16.73;;;;;;;;;;5073764;28;20221;-87
2021/04/29 05:34:21;;;;;;;20.37;15.67;;;;;;;;;;5073674;28;20585;-87
2021/04/29 05:36:46;;;;;;;20.73;18.27;;;;;;;;;;5074072;28;20175;-87
2021/04/29 05:39:12;;;;;;;19.60;16.90;;;;;;;;;;5073533;28;20610;-87
2021/04/29 05:41:38;;;;;;;19.02;16.95;;;;;;;;;;5073834;28;20182;-88
2021/04/29 05:44:03;;;;;;;19.90;17.90;;;;;;;;;;5073928;28;20167;-88
2021/04/29 05:46:28;;;;;;;21.38;19.27;;;;;;;;;;5074204;28;20667;-88
2021/04/29 05:48:54;;;;;;;17.55;15.70;;;;;;;;;;5073600;28;20237;-88
2021/04/29 05:51:19;;;;;;;18.92;15.73;;;;;;;;;;5073641;28;20205;-88
2021/04/29 05:53:44;;;;;;;20.08;17.45;;;;;;;;;;5073412;28;20632;-88
2021/04/29 05:56:10;;;;;;;18.15;16.45;;;;;;;;;;5073578;28;20255;-88
2021/04/29 05:58:35;;;;;;;18.48;16.77;;;;;;;;;;5072979;28;20498;-87
2021/04/29 06:01:02;;;;;;;20.05;17.98;;;;;;;;;;5073400;28;20175;-87
2021/04/29 06:03:28;;;;;;;18.40;16.58;;;;;;;;;;5072053;28;20171;-88
2021/04/29 06:05:53;;;;;;;18.30;15.70;;;;;;;;;;5073197;28;20175;-86
2021/04/29 06:08:18;;;;;;;17.20;15.60;;;;;;;;;;5073515;28;20544;-85
2021/04/29 06:10:44;;;;;;;21.15;16.15;;;;;;;;;;5072780;28;20288;-85
2021/04/29 06:13:09;;;;;;;18.00;16.08;;;;;;;;;;5072990;28;20255;-85
2021/04/29 06:15:34;;;;;;;18.45;16.20;;;;;;;;;;5073300;28;20175;-85
2021/04/29 06:17:59;;;;;;;17.20;15.45;;;;;;;;;;5073243;28;20167;-85
2021/04/29 06:20:25;;;;;;;17.52;16.02;;;;;;;;;;5073254;28;20167;-87
2021/04/29 06:22:50;;;;;;;18.30;14.98;;;;;;;;;;5073314;28;20213;-86
2021/04/29 06:25:16;;;;;;;15.57;14.15;;;;;;;;;;5072760;28;20177;-86
2021/04/29 06:27:41;;;;;;;17.48;14.75;;;;;;;;;;5073369;28;20609;-86
2021/04/29 06:30:07;;;;;;;15.98;14.68;;;;;;;;;;5071607;28;20214;-85
2021/04/29 06:32:33;;;;;;;16.38;14.88;;;;;;;;;;5071620;28;20171;-85
2021/04/29 06:34:58;;;;;;;17.00;15.27;;;;;;;;;;5072976;28;20175;-86
2021/04/29 06:37:24;;;;;;;15.55;13.95;;;;;;;;;;5071854;28;20167;-87
2021/04/29 06:39:49;;;;;;;15.60;14.32;;;;;;;;;;5072831;28;20207;-85
2021/04/29 06:42:15;;;;;;;14.13;12.88;;;;;;;;;;5072708;28;20171;-85
2021/04/29 06:44:41;;;;;;;15.15;13.52;;;;;;;;;;5072946;28;20223;-85
2021/04/29 06:47:06;;;;;;;15.70;14.30;;;;;;;;;;5072775;28;20609;-85
2021/04/29 06:49:32;;;;;;;15.50;13.95;;;;;;;;;;5072318;28;20227;-86
2021/04/29 06:51:57;;;;;;;15.10;13.80;;;;;;;;;;5071708;28;20638;-86
2021/04/29 06:54:23;;;;;;;16.15;14.60;;;;;;;;;;5072724;28;20257;-86
2021/04/29 06:56:48;;;;;;;15.98;14.35;;;;;;;;;;5072444;28;20304;-85
2021/04/29 06:59:13;;;;;;;15.75;14.45;;;;;;;;;;5073005;28;20506;-85
2021/04/29 07:01:38;;;;;;;15.55;14.02;;;;;;;;;;5073026;28;20506;-85
2021/04/29 07:04:04;;;;;;;15.70;14.20;;;;;;;;;;5072077;28;20512;-85
2021/04/29 07:06:29;;;;;;;16.90;15.23;;;;;;;;;;5072769;28;20167;-85
2021/04/29 07:08:56;;;;;;;14.20;13.00;;;;;;;;;;5072705;28;20268;-86
2021/04/29 07:11:21;;;;;;;14.52;13.23;;;;;;;;;;5074537;28;20163;-88
2021/04/29 07:13:46;;;;;;;15.85;14.20;;;;;;;;;;5076617;28;20186;-86
2021/04/29 07:16:12;;;;;;;15.30;13.32;;;;;;;;;;5076277;28;20679;-86
2021/04/29 07:18:37;;;;;;;15.43;13.82;;;;;;;;;;5076401;28;20198;-86
2021/04/29 07:21:03;;;;;;;15.95;14.32;;;;;;;;;;5076467;28;20171;-86
2021/04/29 07:23:28;;;;;;;16.27;14.70;;;;;;;;;;5076231;28;20175;-86
2021/04/29 07:25:54;;;;;;;14.60;13.20;;;;;;;;;;5066168;28;20604;-88
2021/04/29 07:28:21;;;;;;;13.52;12.32;;;;;;;;;;5040838;28;20184;-87
2021/04/29 07:30:46;;;;;;;15.20;13.80;;;;;;;;;;5036391;28;20208;-87
2021/04/29 07:33:12;;;;;;;15.35;13.85;;;;;;;;;;5051408;28;20266;-88
2021/04/29 07:35:38;;;;;;;16.30;14.75;;;;;;;;;;5055057;28;20188;-87
2021/04/29 07:38:03;;;;;;;15.77;14.43;;;;;;;;;;5056046;28;20200;-88
2021/04/29 07:40:29;;;;;;;14.48;13.18;;;;;;;;;;5056441;28;20262;-86
2021/04/29 07:42:56;;;;;;;15.60;14.23;;;;;;;;;;5056020;28;20221;-88
2021/04/29 07:45:21;;;;;;;15.07;13.60;;;;;;;;;;5055915;28;20172;-87
2021/04/29 07:47:46;;;;;;;15.52;14.02;;;;;;;;;;5056131;28;20171;-87
2021/04/29 07:50:13;;;;;;;15.68;13.73;;;;;;;;;;5056154;28;20234;-86
2021/04/29 07:52:40;;;;;;;15.73;14.23;;;;;;;;;;5056402;28;20207;-87
2021/04/29 07:55:06;;;;;;;15.55;14.05;;;;;;;;;;5055956;28;20172;-86
2021/04/29 07:57:31;;;;;;;15.27;13.52;;;;;;;;;;5055982;28;20164;-87
2021/04/29 07:59:57;;;;;;;14.70;13.30;;;;;;;;;;5056209;28;20306;-86
2021/04/29 08:02:22;;;;;;;14.32;13.02;;;;;;;;;;5055653;28;20195;-87
2021/04/29 08:04:47;;;;;;;14.32;12.85;;;;;;;;;;5055472;28;20246;-86
2021/04/29 08:07:13;;;;;;;13.65;12.43;;;;;;;;;;5055373;28;20175;-87
2021/04/29 08:09:38;;;;;;;13.93;12.52;;;;;;;;;;5055745;28;20207;-86
2021/04/29 08:12:03;;;;;;;13.48;12.02;;;;;;;;;;5055430;28;20194;-89
2021/04/29 08:14:29;;;;;;;13.10;11.90;;;;;;;;;;5055491;28;20183;-85
2021/04/29 08:16:54;;;;;;;12.85;11.75;;;;;;;;;;5053548;28;20218;-87
2021/04/29 08:19:19;;;;;;;13.13;11.90;;;;;;;;;;5056587;28;20176;-87
2021/04/29 08:21:48;;;;;;;13.38;12.07;;;;;;;;;;5055098;28;20615;-89
2021/04/29 08:24:13;;;;;;;14.40;12.23;;;;;;;;;;5056270;28;20175;-89
2021/04/29 08:26:39;;;;;;;12.55;11.35;;;;;;;;;;5056473;28;20245;-89
2021/04/29 08:29:05;;;;;;;13.35;11.55;;;;;;;;;;5056247;28;20672;-90
2021/04/29 08:31:30;;;;;;;14.20;12.75;;;;;;;;;;5056094;28;20164;-89
2021/04/29 08:33:56;;;;;;;12.52;11.23;;;;;;;;;;5055793;28;20251;-87
2021/04/29 08:36:21;;;;;;;13.05;10.80;;;;;;;;;;5044120;28;20173;-88
2021/04/29 08:38:46;;;;;;;12.98;11.75;;;;;;;;;;5041036;28;20206;-88
2021/04/29 08:41:12;;;;;;;12.38;11.27;;;;;;;;;;5035615;28;20169;-88
2021/04/29 08:43:37;;;;;;;12.77;11.38;;;;;;;;;;5036113;28;20169;-89
2021/04/29 08:46:03;;;;;;;12.35;11.00;;;;;;;;;;5036039;28;20207;-89
2021/04/29 08:48:29;;;;;;;13.40;10.75;;;;;;;;;;5035702;28;20225;-87
2021/04/29 08:50:54;;;;;;;12.07;10.88;;;;;;;;;;5034884;28;20172;-87
2021/04/29 08:53:19;;;;;;;14.48;10.30;;;;;;;;;;5036215;28;20164;-87
2021/04/29 08:55:45;;;;;;;11.48;10.27;;;;;;;;;;5035522;28;20175;-87
2021/04/29 08:58:11;;;;;;;11.70;10.50;;;;;;;;;;5035965;28;20199;-87
2021/04/29 09:00:36;;;;;;;11.53;10.33;;;;;;;;;;5035385;28;20169;-86
2021/04/29 09:03:02;;;;;;;12.03;10.47;;;;;;;;;;5035553;28;20168;-87
2021/04/29 09:05:34;;;;;;;10.50;9.40;;;;;;;;;;5035298;28;20203;-85
2021/04/29 09:08:00;;;;;;;10.57;9.47;;;;;;;;;;5035380;28;20196;-89
2021/04/29 09:10:27;;;;;;;10.77;9.67;;;;;;;;;;5035405;28;20196;-88
2021/04/29 09:12:52;;;;;;;11.67;9.80;;;;;;;;;;5035482;28;20168;-88
2021/04/29 09:15:21;;;;;;;10.17;9.10;;;;;;;;;;5034834;28;20593;-89
2021/04/29 09:17:50;;;;;;;11.87;9.07;;;;;;;;;;5036145;28;20180;-88
2021/04/29 09:20:20;;;;;;;11.57;9.10;;;;;;;;;;5035452;28;20173;-88
2021/04/29 09:22:45;;;;;;;10.03;9.13;;;;;;;;;;5035189;28;20165;-88
2021/04/29 09:25:14;;;;;;;10.93;9.83;;;;;;;;;;5053854;28;20194;-88
2021/04/29 09:27:39;;;;;;;11.30;9.60;;;;;;;;;;5055032;28;20175;-89
2021/04/29 09:30:05;;;;;;;11.33;8.97;;;;;;;;;;5054960;28;20192;-88
2021/04/29 09:32:35;;;;;;;11.00;9.23;;;;;;;;;;5054788;28;20571;-89
2021/04/29 09:35:03;;;;;;;12.97;9.47;;;;;;;;;;5054366;28;20251;-89
2021/04/29 09:37:38;;;;;;;11.60;9.27;;;;;;;;;;5055320;28;20180;-88
2021/04/29 09:40:19;;;;;;;11.27;9.30;;;;;;;;;;5055110;28;20183;-90
2021/04/29 09:42:46;;;;;;;11.03;10.03;;;;;;;;;;5054884;28;20158;-89
2021/04/29 09:45:18;;;;;;;17.93;16.03;;;;;;;;;;5054958;28;20202;-89
2021/04/29 09:48:07;;;;;;;12.10;10.10;;;;;;;;;;5054202;28;20167;-89
2021/04/29 09:50:34;;;;;;;11.83;10.47;;;;;;;;;;5051141;28;20246;-87
2021/04/29 09:56:06;;;;;;;12.60;11.40;;;;;;;;;;5053088;28;20186;-89
2021/04/29 09:58:31;;;;;;;11.57;10.37;;;;;;;;;;5054365;28;20179;-89
2021/04/29 10:00:56;;;;;;;14.90;10.53;;;;;;;;;;5051199;28;20180;-89
2021/04/29 10:03:22;;;;;;;12.97;9.83;;;;;;;;;;5046817;28;20203;-86
2021/04/29 10:05:53;;;;;;;12.70;7.70;;;;;;;;;;5054027;28;20254;-86
2021/04/29 10:08:21;;;;;;;9.87;8.93;;;;;;;;;;5053116;28;20211;-86
2021/04/29 10:10:47;;;;;;;10.50;8.53;;;;;;;;;;5054544;28;20199;-86
2021/04/29 10:13:13;;;;;;;9.13;8.33;;;;;;;;;;5054158;28;20229;-86
2021/04/29 10:15:40;;;;;;;9.13;7.93;;;;;;;;;;5053904;28;20171;-87
2021/04/29 10:18:09;;;;;;;10.47;8.90;;;;;;;;;;5054226;28;20168;-88
2021/04/29 10:20:35;;;;;;;10.33;8.73;;;;;;;;;;5053943;28;20218;-88
2021/04/29 10:23:01;;;;;;;12.30;9.27;;;;;;;;;;5054063;28;20217;-88
2021/04/29 10:25:29;;;;;;;12.37;9.10;;;;;;;;;;5054803;28;20176;-88
2021/04/29 10:27:55;;;;;;;11.00;9.00;;;;;;;;;;5053992;28;20175;-87
2021/04/29 10:30:29;;;;;;;11.63;9.30;;;;;;;;;;5053660;28;20203;-90
2021/04/29 10:32:55;;;;;;;8.57;7.40;;;;;;;;;;5053834;28;20160;-87
2021/04/29 10:35:21;;;;;;;8.88;7.95;;;;;;;;;;5053661;28;20175;-87
2021/04/29 10:37:54;;;;;;;8.40;7.63;;;;;;;;;;5052817;28;20207;-88
2021/04/29 10:40:29;;;;;;;10.18;8.88;;;;;;;;;;5053647;28;20176;-87
2021/04/29 10:42:55;;;;;;;10.50;8.15;;;;;;;;;;5054007;28;20160;-88
2021/04/29 10:45:20;;;;;;;10.60;9.50;;;;;;;;;;5053340;28;20178;-88
2021/04/29 10:47:45;;;;;;;9.52;8.50;;;;;;;;;;5054131;28;20172;-88
2021/04/29 10:50:12;;;;;;;11.95;8.88;;;;;;;;;;5053899;28;20277;-88
2021/04/29 10:52:57;;;;;;;11.97;9.40;;;;;;;;;;5040875;28;20542;-89
2021/04/29 10:55:26;;;;;;;10.27;9.03;;;;;;;;;;5033993;28;20208;-87
2021/04/29 10:57:52;;;;;;;9.77;8.98;;;;;;;;;;5033992;28;20255;-88
2021/04/29 11:00:18;;;;;;;11.03;9.60;;;;;;;;;;5034388;28;20589;-87
2021/04/29 11:02:43;;;;;;;13.18;10.75;;;;;;;;;;5042522;28;20176;-87
2021/04/29 11:05:20;;;;;;;12.93;9.50;;;;;;;;;;5048451;28;20263;-86
2021/04/29 11:07:46;;;;;;;10.13;9.13;;;;;;;;;;5046803;28;20179;-87
2021/04/29 11:10:12;;;;;;;10.33;9.23;;;;;;;;;;5051919;28;20257;-86
2021/04/29 11:12:54;;;;;;;13.07;11.45;;;;;;;;;;5052657;28;20183;-86
2021/04/29 11:15:30;;;;;;;11.88;9.73;;;;;;;;;;5042569;28;20180;-86
2021/04/29 11:18:10;;;;;;;9.60;8.68;;;;;;;;;;5034162;28;20176;-86
2021/04/29 11:20:43;;;;;;;12.60;10.70;;;;;;;;;;5033601;28;20638;-87
2021/04/29 11:23:08;;;;;;;10.98;9.60;;;;;;;;;;5033568;28;20173;-86
2021/04/29 11:25:33;;;;;;;14.85;10.20;;;;;;;;;;5033578;28;20171;-87
2021/04/29 11:27:59;;;;;;;11.40;10.00;;;;;;;;;;5046799;28;20626;-86
2021/04/29 11:30:25;;;;;;;12.90;10.95;;;;;;;;;;5053466;28;20200;-86
2021/04/29 11:33:01;;;;;;;11.13;10.02;;;;;;;;;;5052706;28;20169;-86
2021/04/29 11:35:30;;;;;;;11.45;10.10;;;;;;;;;;5052459;28;20167;-87
2021/04/29 11:37:56;;;;;;;10.75;9.65;;;;;;;;;;5052370;28;20255;-86
2021/04/29 11:40:22;;;;;;;11.05;9.93;;;;;;;;;;5052135;28;20218;-87
2021/04/29 11:42:49;;;;;;;12.93;10.00;;;;;;;;;;5053216;28;20253;-86
2021/04/29 11:45:16;;;;;;;11.48;10.20;;;;;;;;;;5053672;28;20172;-89
2021/04/29 11:48:08;;;;;;;11.77;10.57;;;;;;;;;;5050522;28;20176;-87
2021/04/29 11:50:35;;;;;;;11.10;9.93;;;;;;;;;;5049911;28;20554;-91
2021/04/29 11:53:13;;;;;;;14.02;10.75;;;;;;;;;;5052206;28;20533;-92
2021/04/29 11:55:41;;;;;;;10.13;9.02;;;;;;;;;;5051028;28;20184;-92
2021/04/29 11:58:08;;;;;;;12.27;10.27;;;;;;;;;;5055144;28;20282;-92
2021/04/29 12:00:41;;;;;;;10.73;9.27;;;;;;;;;;5055497;28;20176;-92
2021/04/29 12:03:07;;;;;;;11.20;8.70;;;;;;;;;;5055397;28;20176;-91
2021/04/29 12:05:34;;;;;;;10.00;9.02;;;;;;;;;;5056892;28;20172;-93
2021/04/29 12:08:01;;;;;;;10.40;8.35;;;;;;;;;;5054961;28;20214;-92
2021/04/29 12:10:40;;;;;;;9.52;8.52;;;;;;;;;;5056329;28;20297;-92
2021/04/29 12:13:05;;;;;;;11.27;9.75;;;;;;;;;;5055587;28;20513;-90
2021/04/29 12:15:31;;;;;;;10.68;9.57;;;;;;;;;;5054524;28;20176;-91
2021/04/29 12:17:56;;;;;;;12.18;9.95;;;;;;;;;;5055221;28;20642;-91
2021/04/29 12:20:21;;;;;;;13.15;9.73;;;;;;;;;;5056254;28;20215;-91
2021/04/29 12:22:47;;;;;;;10.13;9.13;;;;;;;;;;5056649;28;20630;-91
2021/04/29 12:25:19;;;;;;;11.55;8.73;;;;;;;;;;5054719;28;20249;-90
2021/04/29 12:27:45;;;;;;;11.82;8.02;;;;;;;;;;5055587;28;20226;-90
2021/04/29 12:30:10;;;;;;;9.13;8.10;;;;;;;;;;5054167;28;20200;-92
2021/04/29 12:32:43;;;;;;;10.43;8.27;;;;;;;;;;5054889;28;20531;-90
2021/04/29 12:35:08;;;;;;;13.88;9.60;;;;;;;;;;5055866;28;20186;-90
2021/04/29 12:37:34;;;;;;;10.43;8.27;;;;;;;;;;5053500;28;20181;-91
2021/04/29 12:39:59;;;;;;;12.93;8.43;;;;;;;;;;5053772;28;20534;-91
2021/04/29 12:42:24;;;;;;;10.23;8.30;;;;;;;;;;5055089;28;20176;-90
2021/04/29 12:45:00;;;;;;;8.90;7.82;;;;;;;;;;5054180;28;20228;-91
2021/04/29 12:47:27;;;;;;;9.13;8.23;;;;;;;;;;5055892;28;20513;-90
2021/04/29 12:49:55;;;;;;;9.85;8.27;;;;;;;;;;5054076;28;20250;-90
2021/04/29 12:52:21;;;;;;;9.68;8.57;;;;;;;;;;5054356;28;20175;-90
2021/04/29 12:54:48;;;;;;;12.45;8.95;;;;;;;;;;5055302;28;20182;-90
2021/04/29 12:57:19;;;;;;;11.05;9.85;;;;;;;;;;5056577;28;20179;-91
2021/04/29 12:59:45;;;;;;;13.70;9.57;;;;;;;;;;5061650;28;20186;-92
2021/04/29 13:02:11;;;;;;;13.30;9.00;;;;;;;;;;5040984;28;20175;-91
2021/04/29 13:04:41;;;;;;;14.03;9.30;;;;;;;;;;5073892;28;20175;-91
2021/04/29 13:07:07;;;;;;;11.40;8.88;;;;;;;;;;5059711;28;20176;-91
2021/04/29 13:09:33;;;;;;;10.10;9.10;;;;;;;;;;5055069;28;20203;-90
2021/04/29 13:12:14;;;;;;;10.38;9.15;;;;;;;;;;5055113;28;20172;-91
2021/04/29 13:14:41;;;;;;;9.88;8.88;;;;;;;;;;5054079;28;20184;-91
2021/04/29 13:17:10;;;;;;;13.00;10.23;;;;;;;;;;5055124;28;20603;-90
2021/04/29 13:19:36;;;;;;;10.70;9.70;;;;;;;;;;5055128;28;20179;-91
2021/04/29 13:22:01;;;;;;;11.90;9.13;;;;;;;;;;5054008;28;20633;-92
2021/04/29 13:24:26;;;;;;;12.50;8.93;;;;;;;;;;5054559;28;20214;-92
2021/04/29 13:26:59;;;;;;;13.30;8.98;;;;;;;;;;5053597;28;20176;-92
2021/04/29 13:29:25;;;;;;;9.45;8.48;;;;;;;;;;5055235;28;20196;-92
2021/04/29 13:31:50;;;;;;;12.38;8.50;;;;;;;;;;5054472;28;20271;-91
2021/04/29 13:34:17;;;;;;;11.15;8.40;;;;;;;;;;5052931;28;20180;-91
2021/04/29 13:36:43;;;;;;;10.75;9.65;;;;;;;;;;5054793;28;20172;-91
2021/04/29 13:39:09;;;;;;;11.07;8.75;;;;;;;;;;5053559;28;20237;-91
2021/04/29 13:41:36;;;;;;;11.33;9.00;;;;;;;;;;5053826;28;20176;-93
2021/04/29 13:44:01;;;;;;;9.70;8.70;;;;;;;;;;5055394;28;20168;-93
2021/04/29 13:46:27;;;;;;;10.55;8.15;;;;;;;;;;5054061;28;20184;-93
2021/04/29 13:48:53;;;;;;;12.83;8.90;;;;;;;;;;5053309;28;20231;-93
2021/04/29 13:51:20;;;;;;;9.85;8.45;;;;;;;;;;5037532;28;20261;-93
2021/04/29 13:53:48;;;;;;;9.07;8.17;;;;;;;;;;5054574;28;20183;-93
2021/04/29 13:56:13;;;;;;;11.18;8.63;;;;;;;;;;5053341;28;20168;-93
2021/04/29 13:58:39;;;;;;;10.25;8.00;;;;;;;;;;5059643;28;20214;-91
2021/04/29 14:01:08;;;;;;;12.02;8.38;;;;;;;;;;5065230;28;20687;-90
2021/04/29 14:03:33;;;;;;;11.27;8.23;;;;;;;;;;5056526;28;20179;-92
2021/04/29 14:05:59;;;;;;;10.50;8.98;;;;;;;;;;5053646;28;20172;-91
2021/04/29 14:08:24;;;;;;;9.65;7.80;;;;;;;;;;5050427;28;20200;-92
2021/04/29 14:10:49;;;;;;;10.25;8.57;;;;;;;;;;5051091;28;20211;-91
2021/04/29 14:13:15;;;;;;;9.55;8.05;;;;;;;;;;5051198;28;20233;-92
2021/04/29 14:15:41;;;;;;;9.98;8.00;;;;;;;;;;5050599;28;20215;-91
2021/04/29 14:18:07;;;;;;;11.77;7.90;;;;;;;;;;5052641;28;20168;-87
2021/04/29 14:20:32;;;;;;;9.07;7.67;;;;;;;;;;5051801;28;20174;-91